Time;durP1;ratioP1;P1;durP2;ratioP2;P2;SDS_P1;SDS_P2;PMS_P1;PMS_P2;Temp;Humidity;BMP_temperature;BMP_pressure;BME280_temperature;BME280_humidity;BME280_pressure;Samples;Min_cycle;Max_cycle;Signal;HPM_P1;HPM_P2
2022/03/23 00:01:09;;;;;;;10.20;6.00;;;;;;;;;;4982722;28;20277;-52
2022/03/23 00:03:35;;;;;;;10.17;5.50;;;;;;;;;;4985188;28;20018;-52
2022/03/23 00:06:03;;;;;;;10.52;6.13;;;;;;;;;;4982264;28;20278;-52
2022/03/23 00:08:28;;;;;;;12.52;6.88;;;;;;;;;;4974316;28;20022;-52
2022/03/23 00:10:54;;;;;;;10.45;6.13;;;;;;;;;;4986079;28;20041;-51
2022/03/23 00:13:19;;;;;;;11.40;6.20;;;;;;;;;;4986047;28;20065;-51
2022/03/23 00:15:45;;;;;;;11.52;6.35;;;;;;;;;;4985692;28;20332;-51
2022/03/23 00:18:10;;;;;;;9.73;5.88;;;;;;;;;;4985931;28;20026;-52
2022/03/23 00:20:36;;;;;;;9.90;5.85;;;;;;;;;;4986018;28;20157;-53
2022/03/23 00:23:01;;;;;;;10.13;5.90;;;;;;;;;;4984765;28;20117;-51
2022/03/23 00:25:26;;;;;;;11.45;5.85;;;;;;;;;;4985902;28;20304;-50
2022/03/23 00:27:51;;;;;;;10.83;5.60;;;;;;;;;;4972165;28;20458;-50
2022/03/23 00:30:17;;;;;;;10.23;5.65;;;;;;;;;;5005154;28;20323;-50
2022/03/23 00:32:42;;;;;;;9.63;5.72;;;;;;;;;;5005220;28;20048;-50
2022/03/23 00:35:07;;;;;;;10.68;5.63;;;;;;;;;;4995084;28;20041;-50
2022/03/23 00:37:33;;;;;;;11.23;5.75;;;;;;;;;;4985364;28;20034;-50
2022/03/23 00:39:58;;;;;;;10.23;5.50;;;;;;;;;;4985545;28;20268;-50
2022/03/23 00:42:23;;;;;;;8.97;5.40;;;;;;;;;;4985435;28;20037;-50
2022/03/23 00:44:51;;;;;;;11.47;6.67;;;;;;;;;;4985454;28;20298;-54
2022/03/23 00:47:16;;;;;;;11.15;6.20;;;;;;;;;;4971829;28;20031;-52
2022/03/23 00:49:41;;;;;;;9.83;5.30;;;;;;;;;;5000364;28;20731;-51
2022/03/23 00:52:07;;;;;;;11.30;6.00;;;;;;;;;;5004902;28;20280;-51
2022/03/23 00:54:34;;;;;;;11.10;6.20;;;;;;;;;;5004414;28;20304;-50
2022/03/23 00:56:59;;;;;;;10.07;5.45;;;;;;;;;;4993240;28;20286;-51
2022/03/23 00:59:25;;;;;;;9.80;6.10;;;;;;;;;;5000652;28;20030;-52
2022/03/23 01:01:50;;;;;;;10.73;6.03;;;;;;;;;;5011586;28;20492;-51
2022/03/23 01:04:15;;;;;;;8.85;5.35;;;;;;;;;;5013559;28;20292;-51
2022/03/23 01:06:41;;;;;;;8.37;5.77;;;;;;;;;;5004315;28;20117;-51
2022/03/23 01:09:06;;;;;;;11.20;5.63;;;;;;;;;;4991791;28;20273;-52
2022/03/23 01:11:31;;;;;;;10.50;5.70;;;;;;;;;;4990207;28;20022;-51
2022/03/23 01:13:57;;;;;;;9.33;5.60;;;;;;;;;;4987475;28;20038;-52
2022/03/23 01:16:22;;;;;;;9.83;5.30;;;;;;;;;;4989429;28;20278;-51
2022/03/23 01:18:47;;;;;;;10.83;5.70;;;;;;;;;;4989356;28;20030;-51
2022/03/23 01:21:13;;;;;;;9.70;5.50;;;;;;;;;;4985116;28;20038;-51
2022/03/23 01:23:39;;;;;;;9.90;5.40;;;;;;;;;;4984295;28;20270;-51
2022/03/23 01:26:04;;;;;;;11.23;5.82;;;;;;;;;;4980546;28;20015;-51
2022/03/23 01:28:29;;;;;;;11.13;6.05;;;;;;;;;;4972653;28;20263;-51
2022/03/23 01:30:54;;;;;;;9.15;5.75;;;;;;;;;;4983828;28;20030;-50
2022/03/23 01:33:22;;;;;;;10.20;5.78;;;;;;;;;;4983533;28;20185;-51
2022/03/23 01:35:50;;;;;;;;;;;;;;;;;;4982732;28;20034;-51
2022/03/23 01:38:15;;;;;;;9.95;4.97;;;;;;;;;;4983549;28;19913;-50
2022/03/23 01:40:40;;;;;;;10.07;5.60;;;;;;;;;;4983292;28;20049;-52
2022/03/23 01:43:05;;;;;;;8.93;5.32;;;;;;;;;;4983286;28;20270;-51
2022/03/23 01:45:31;;;;;;;9.43;5.37;;;;;;;;;;4983479;28;20026;-51
2022/03/23 01:47:56;;;;;;;9.38;5.25;;;;;;;;;;4982347;28;21089;-51
2022/03/23 01:50:21;;;;;;;11.20;5.30;;;;;;;;;;5003489;28;20026;-51
2022/03/23 01:52:46;;;;;;;8.77;5.20;;;;;;;;;;5003119;28;20091;-51
2022/03/23 01:55:13;;;;;;;10.20;5.30;;;;;;;;;;5003217;28;20343;-52
2022/03/23 01:57:40;;;;;;;9.00;4.82;;;;;;;;;;4986311;28;20273;-51
2022/03/23 02:00:08;;;;;;;8.65;4.90;;;;;;;;;;4983955;28;20029;-52
2022/03/23 02:02:33;;;;;;;8.40;5.03;;;;;;;;;;4983758;28;20022;-51
2022/03/23 02:04:58;;;;;;;8.83;4.90;;;;;;;;;;4983841;28;20176;-52
2022/03/23 02:07:24;;;;;;;9.20;5.33;;;;;;;;;;4967738;28;20340;-51
2022/03/23 02:09:49;;;;;;;8.70;4.75;;;;;;;;;;4981980;28;20265;-52
2022/03/23 02:12:15;;;;;;;7.90;4.55;;;;;;;;;;4983421;28;20113;-51
2022/03/23 02:14:40;;;;;;;8.95;5.03;;;;;;;;;;4982493;28;20399;-52
2022/03/23 02:17:05;;;;;;;8.68;5.10;;;;;;;;;;4983746;28;20022;-52
2022/03/23 02:19:30;;;;;;;7.60;4.53;;;;;;;;;;4983673;28;20026;-51
2022/03/23 02:21:56;;;;;;;8.52;5.18;;;;;;;;;;4983298;28;20061;-51
2022/03/23 02:24:23;;;;;;;8.75;4.85;;;;;;;;;;4983214;28;20030;-51
2022/03/23 02:26:48;;;;;;;10.73;5.20;;;;;;;;;;4973546;28;20058;-52
2022/03/23 02:29:14;;;;;;;8.50;4.93;;;;;;;;;;4990174;28;20598;-50
2022/03/23 02:31:39;;;;;;;7.00;4.20;;;;;;;;;;5001684;28;20481;-50
2022/03/23 02:34:04;;;;;;;8.50;4.67;;;;;;;;;;5000899;28;20109;-50
2022/03/23 02:36:31;;;;;;;8.43;4.63;;;;;;;;;;4983312;28;20777;-50
2022/03/23 02:38:56;;;;;;;8.65;4.57;;;;;;;;;;4983212;28;20257;-50
2022/03/23 02:41:21;;;;;;;7.90;4.28;;;;;;;;;;4982132;28;20137;-50
2022/03/23 02:43:46;;;;;;;7.03;4.20;;;;;;;;;;5000808;28;20064;-49
2022/03/23 02:46:18;;;;;;;7.40;4.07;;;;;;;;;;4997769;28;20300;-50
2022/03/23 02:48:43;;;;;;;7.78;4.57;;;;;;;;;;4983219;28;20022;-50
2022/03/23 02:51:09;;;;;;;8.15;4.70;;;;;;;;;;4983284;28;20024;-50
2022/03/23 03:02:15;;;;;;;7.75;4.68;;;;;;;;;;4983049;28;20033;-51
2022/03/23 03:04:41;;;;;;;8.80;4.30;;;;;;;;;;4982828;28;20026;-49
2022/03/23 03:07:06;;;;;;;7.07;4.10;;;;;;;;;;4970738;28;20038;-50
2022/03/23 03:09:32;;;;;;;6.83;3.87;;;;;;;;;;4994573;28;20432;-51
2022/03/23 03:11:57;;;;;;;7.43;4.20;;;;;;;;;;5002474;28;20300;-51
2022/03/23 03:14:22;;;;;;;6.47;4.22;;;;;;;;;;5002491;28;20040;-52
2022/03/23 03:16:48;;;;;;;6.30;3.78;;;;;;;;;;4992916;28;20066;-50
2022/03/23 03:19:13;;;;;;;6.65;4.47;;;;;;;;;;4983136;28;20085;-51
2022/03/23 03:21:39;;;;;;;7.88;3.85;;;;;;;;;;4982701;28;20030;-49
2022/03/23 03:24:04;;;;;;;6.60;3.90;;;;;;;;;;4982954;28;20477;-51
2022/03/23 03:26:32;;;;;;;6.65;3.95;;;;;;;;;;4976005;28;20289;-50
2022/03/23 03:28:57;;;;;;;6.60;3.83;;;;;;;;;;4974243;28;20069;-51
2022/03/23 03:31:23;;;;;;;7.23;3.63;;;;;;;;;;4982688;28;20054;-51
2022/03/23 03:33:48;;;;;;;6.87;4.30;;;;;;;;;;4984293;28;20297;-51
2022/03/23 03:36:13;;;;;;;6.40;3.67;;;;;;;;;;4983198;28;20788;-50
2022/03/23 03:38:38;;;;;;;7.20;3.55;;;;;;;;;;4985581;28;20704;-50
2022/03/23 03:41:04;;;;;;;7.85;3.75;;;;;;;;;;4985747;28;20178;-50
2022/03/23 03:43:30;;;;;;;8.57;4.65;;;;;;;;;;4986300;28;20076;-50
2022/03/23 03:45:55;;;;;;;6.85;3.55;;;;;;;;;;4983882;28;20026;-51
2022/03/23 03:48:20;;;;;;;7.55;3.83;;;;;;;;;;4991159;28;20065;-50
2022/03/23 03:50:46;;;;;;;6.07;3.50;;;;;;;;;;5005981;28;20068;-51
2022/03/23 03:53:11;;;;;;;6.00;3.38;;;;;;;;;;5005357;28;20312;-51
2022/03/23 03:55:36;;;;;;;7.87;3.67;;;;;;;;;;5005415;28;20531;-52
2022/03/23 03:58:03;;;;;;;6.55;4.18;;;;;;;;;;4985801;28;20289;-52
2022/03/23 04:00:28;;;;;;;7.40;3.80;;;;;;;;;;4986144;28;20022;-51
2022/03/23 04:02:53;;;;;;;7.22;3.97;;;;;;;;;;4985832;28;20092;-50
2022/03/23 04:05:19;;;;;;;6.50;3.40;;;;;;;;;;4985545;28;20014;-51
2022/03/23 04:07:44;;;;;;;6.07;3.58;;;;;;;;;;4985246;28;20313;-51
2022/03/23 04:10:09;;;;;;;5.60;3.43;;;;;;;;;;4985880;28;20406;-50
2022/03/23 04:12:35;;;;;;;5.47;3.47;;;;;;;;;;4985735;28;20301;-51
2022/03/23 04:15:00;;;;;;;7.18;3.28;;;;;;;;;;4985609;28;20026;-51
2022/03/23 04:17:25;;;;;;;6.83;3.10;;;;;;;;;;4985605;28;20026;-52
2022/03/23 04:19:50;;;;;;;7.50;3.28;;;;;;;;;;4985801;28;20293;-51
2022/03/23 04:22:16;;;;;;;5.00;3.10;;;;;;;;;;4985643;28;20031;-51
2022/03/23 04:24:41;;;;;;;4.60;2.83;;;;;;;;;;4983348;28;20030;-51
2022/03/23 04:27:06;;;;;;;5.87;3.13;;;;;;;;;;4965706;28;20274;-51
2022/03/23 04:29:31;;;;;;;6.30;3.30;;;;;;;;;;4965289;28;20355;-50
2022/03/23 04:31:57;;;;;;;5.67;2.90;;;;;;;;;;4967638;28;20022;-51
2022/03/23 04:34:22;;;;;;;5.83;2.83;;;;;;;;;;4967609;28;20053;-51
2022/03/23 04:36:47;;;;;;;4.75;3.00;;;;;;;;;;4965597;28;20019;-51
2022/03/23 04:39:13;;;;;;;5.93;2.85;;;;;;;;;;4966102;28;20117;-51
2022/03/23 04:41:38;;;;;;;5.70;3.10;;;;;;;;;;4966635;28;20482;-51
2022/03/23 04:44:03;;;;;;;5.13;2.77;;;;;;;;;;4968970;28;20504;-51
2022/03/23 04:46:28;;;;;;;4.68;2.70;;;;;;;;;;4965448;28;20718;-51
2022/03/23 04:48:54;;;;;;;6.50;3.03;;;;;;;;;;4967155;28;20036;-50
2022/03/23 04:51:19;;;;;;;4.87;2.70;;;;;;;;;;4968043;28;20270;-51
2022/03/23 04:53:44;;;;;;;5.00;2.63;;;;;;;;;;4982592;28;20341;-51
2022/03/23 04:56:09;;;;;;;5.37;2.87;;;;;;;;;;4979109;28;20907;-51
2022/03/23 04:58:35;;;;;;;5.23;2.33;;;;;;;;;;4967921;28;20015;-51
2022/03/23 05:01:00;;;;;;;4.68;2.63;;;;;;;;;;4964605;28;20823;-51
2022/03/23 05:03:25;;;;;;;4.53;2.53;;;;;;;;;;4966572;28;20042;-50
2022/03/23 05:05:51;;;;;;;4.57;2.72;;;;;;;;;;4967566;28;20054;-51
2022/03/23 05:08:17;;;;;;;4.80;2.60;;;;;;;;;;4966403;28;20506;-51
2022/03/23 05:10:42;;;;;;;5.73;2.60;;;;;;;;;;4973118;28;20072;-51
2022/03/23 05:13:07;;;;;;;4.38;2.35;;;;;;;;;;4983422;28;20906;-51
2022/03/23 05:15:32;;;;;;;3.90;2.28;;;;;;;;;;4984747;28;20027;-52
2022/03/23 05:17:58;;;;;;;4.33;2.60;;;;;;;;;;4984149;28;20041;-51
2022/03/23 05:20:24;;;;;;;4.78;2.30;;;;;;;;;;4967267;28;20784;-52
2022/03/23 05:22:50;;;;;;;4.55;2.55;;;;;;;;;;4966895;28;20026;-51
2022/03/23 05:25:15;;;;;;;4.93;2.58;;;;;;;;;;4975636;28;20520;-51
2022/03/23 05:27:40;;;;;;;4.17;2.33;;;;;;;;;;4980279;28;20022;-50
2022/03/23 05:30:07;;;;;;;4.90;2.63;;;;;;;;;;4965720;28;20713;-52
2022/03/23 05:32:32;;;;;;;4.05;2.33;;;;;;;;;;4971331;28;20030;-52
2022/03/23 05:34:57;;;;;;;4.15;2.42;;;;;;;;;;4974340;28;20031;-51
2022/03/23 05:37:23;;;;;;;4.87;2.47;;;;;;;;;;4983951;28;20140;-51
2022/03/23 05:39:48;;;;;;;4.53;2.70;;;;;;;;;;4983868;28;20273;-52
2022/03/23 05:42:13;;;;;;;4.53;2.55;;;;;;;;;;4984110;28;20274;-52
2022/03/23 05:44:38;;;;;;;4.90;2.88;;;;;;;;;;4983905;28;20030;-52
2022/03/23 05:47:04;;;;;;;4.88;2.45;;;;;;;;;;4982302;28;20030;-51
2022/03/23 05:49:29;;;;;;;4.45;2.28;;;;;;;;;;4983939;28;20034;-52
2022/03/23 05:51:54;;;;;;;4.03;2.30;;;;;;;;;;4983835;28;20030;-52
2022/03/23 05:54:20;;;;;;;3.30;2.10;;;;;;;;;;4983296;28;20445;-50
2022/03/23 05:56:45;;;;;;;3.55;2.15;;;;;;;;;;4981391;28;20617;-51
2022/03/23 05:59:10;;;;;;;3.53;2.20;;;;;;;;;;4979945;28;20576;-50
2022/03/23 06:01:36;;;;;;;4.87;2.00;;;;;;;;;;4983071;28;20712;-52
2022/03/23 06:04:01;;;;;;;3.30;1.90;;;;;;;;;;4983583;28;20682;-51
2022/03/23 06:06:26;;;;;;;5.20;2.40;;;;;;;;;;4982779;28;20096;-51
2022/03/23 06:08:51;;;;;;;5.35;2.45;;;;;;;;;;4981612;28;20023;-51
2022/03/23 06:11:17;;;;;;;3.88;2.25;;;;;;;;;;4978834;28;20106;-51
2022/03/23 06:13:44;;;;;;;3.33;2.10;;;;;;;;;;4982675;28;20045;-50
2022/03/23 06:16:09;;;;;;;3.72;2.10;;;;;;;;;;4982963;28;20549;-51
2022/03/23 06:18:34;;;;;;;4.00;2.30;;;;;;;;;;4983313;28;20109;-52
2022/03/23 06:21:00;;;;;;;3.67;1.92;;;;;;;;;;4982787;28;20745;-52
2022/03/23 06:23:25;;;;;;;3.15;2.00;;;;;;;;;;4983239;28;20070;-51
2022/03/23 06:25:51;;;;;;;3.67;2.10;;;;;;;;;;4982077;28;20125;-51
2022/03/23 06:28:16;;;;;;;4.63;2.00;;;;;;;;;;4968455;28;20284;-51
2022/03/23 06:30:42;;;;;;;3.38;1.80;;;;;;;;;;4983437;28;20339;-51
2022/03/23 06:33:07;;;;;;;3.53;1.80;;;;;;;;;;4983118;28;20045;-51
2022/03/23 06:35:33;;;;;;;2.92;1.90;;;;;;;;;;4969724;28;20121;-50
2022/03/23 06:37:58;;;;;;;3.42;1.90;;;;;;;;;;4983811;28;20076;-51
2022/03/23 06:40:24;;;;;;;3.63;2.03;;;;;;;;;;4989752;28;20038;-51
2022/03/23 06:42:49;;;;;;;3.92;2.10;;;;;;;;;;4983418;28;20516;-51
2022/03/23 06:45:14;;;;;;;3.47;1.83;;;;;;;;;;4982571;28;20118;-51
2022/03/23 06:47:40;;;;;;;3.87;1.83;;;;;;;;;;4980645;28;20058;-51
2022/03/23 06:50:07;;;;;;;3.35;2.10;;;;;;;;;;4968866;28;20277;-51
2022/03/23 06:52:32;;;;;;;3.17;1.88;;;;;;;;;;4974588;28;20525;-51
2022/03/23 06:54:57;;;;;;;4.57;2.07;;;;;;;;;;4982376;28;20061;-51
2022/03/23 06:57:23;;;;;;;4.10;2.27;;;;;;;;;;4982666;28;20846;-52
2022/03/23 06:59:48;;;;;;;4.13;1.90;;;;;;;;;;4982471;28;20265;-52
2022/03/23 07:02:13;;;;;;;5.07;2.10;;;;;;;;;;4982547;28;20269;-52
2022/03/23 07:04:39;;;;;;;4.10;1.98;;;;;;;;;;4971459;28;20270;-51
2022/03/23 07:07:04;;;;;;;3.75;1.85;;;;;;;;;;4982258;28;20019;-51
2022/03/23 07:09:32;;;;;;;2.67;1.52;;;;;;;;;;4983040;28;20073;-51
2022/03/23 07:12:01;;;;;;;4.70;1.90;;;;;;;;;;4984241;28;20030;-51
2022/03/23 07:14:29;;;;;;;2.92;1.48;;;;;;;;;;4995327;28;20049;-52
2022/03/23 07:16:54;;;;;;;3.55;1.73;;;;;;;;;;4995188;28;20030;-52
2022/03/23 07:19:19;;;;;;;3.37;1.87;;;;;;;;;;4991412;28;20292;-52
2022/03/23 07:21:45;;;;;;;3.45;1.63;;;;;;;;;;4991574;28;20257;-53
2022/03/23 07:24:11;;;;;;;2.77;1.67;;;;;;;;;;4989181;28;20460;-53
2022/03/23 07:26:36;;;;;;;4.32;1.58;;;;;;;;;;4981576;28;20274;-53
2022/03/23 07:29:01;;;;;;;4.10;1.77;;;;;;;;;;4989795;28;20493;-51
2022/03/23 07:31:26;;;;;;;3.57;1.87;;;;;;;;;;4988200;28;20509;-52
2022/03/23 07:33:52;;;;;;;3.80;1.97;;;;;;;;;;4986671;28;20494;-52
2022/03/23 07:36:17;;;;;;;3.47;1.70;;;;;;;;;;4986358;28;20505;-51
2022/03/23 07:38:42;;;;;;;2.73;1.50;;;;;;;;;;4986560;28;20514;-51
2022/03/23 07:41:08;;;;;;;3.65;1.98;;;;;;;;;;4997823;28;20714;-52
2022/03/23 07:43:33;;;;;;;3.23;1.90;;;;;;;;;;5005488;28;20118;-51
2022/03/23 07:45:59;;;;;;;2.27;1.60;;;;;;;;;;4991489;28;20265;-52
2022/03/23 07:48:24;;;;;;;3.70;2.05;;;;;;;;;;4984426;28;20280;-52
2022/03/23 07:50:52;;;;;;;2.35;1.40;;;;;;;;;;4985229;28;20010;-52
2022/03/23 07:53:18;;;;;;;4.43;1.80;;;;;;;;;;4985262;28;20038;-52
2022/03/23 07:55:43;;;;;;;2.97;1.77;;;;;;;;;;4985041;28;20065;-52
2022/03/23 07:58:08;;;;;;;3.63;2.30;;;;;;;;;;4984861;28;20760;-51
2022/03/23 08:00:34;;;;;;;2.83;1.73;;;;;;;;;;4985463;28;20282;-51
2022/03/23 08:02:59;;;;;;;3.10;1.92;;;;;;;;;;4986299;28;20110;-51
2022/03/23 08:05:25;;;;;;;2.70;1.67;;;;;;;;;;4986186;28;20037;-52
2022/03/23 08:07:50;;;;;;;3.17;1.60;;;;;;;;;;4970697;28;20777;-52
2022/03/23 08:10:15;;;;;;;3.47;1.60;;;;;;;;;;5005892;28;20021;-51
2022/03/23 08:12:41;;;;;;;5.23;1.70;;;;;;;;;;5005738;28;20018;-52
2022/03/23 08:15:07;;;;;;;3.05;1.80;;;;;;;;;;5006195;28;20276;-51
2022/03/23 08:17:32;;;;;;;4.00;1.70;;;;;;;;;;4989922;28;20018;-52
2022/03/23 08:22:41;;;;;;;3.92;1.98;;;;;;;;;;4986437;28;20080;-52
2022/03/23 08:25:07;;;;;;;3.77;1.90;;;;;;;;;;4985796;28;20023;-51
2022/03/23 08:27:32;;;;;;;4.38;2.08;;;;;;;;;;4971478;28;20277;-50
2022/03/23 08:29:57;;;;;;;5.82;2.00;;;;;;;;;;5001464;28;20022;-52
2022/03/23 08:32:22;;;;;;;3.60;2.07;;;;;;;;;;5005615;28;20014;-52
2022/03/23 08:34:48;;;;;;;3.53;1.92;;;;;;;;;;5005247;28;20045;-52
2022/03/23 08:37:14;;;;;;;4.60;2.38;;;;;;;;;;4993452;28;20485;-52
2022/03/23 08:39:39;;;;;;;4.03;2.30;;;;;;;;;;4985756;28;20015;-53
2022/03/23 08:42:05;;;;;;;4.43;2.30;;;;;;;;;;4985608;28;20831;-52
2022/03/23 08:44:31;;;;;;;4.18;2.00;;;;;;;;;;4985309;28;20482;-53
2022/03/23 08:46:56;;;;;;;4.63;2.30;;;;;;;;;;4984635;28;20037;-53
2022/03/23 08:49:21;;;;;;;3.43;1.90;;;;;;;;;;4985046;28;20847;-53
2022/03/23 08:51:46;;;;;;;3.97;2.13;;;;;;;;;;4983664;28;20548;-53
2022/03/23 08:54:12;;;;;;;4.73;2.70;;;;;;;;;;4984797;28;20429;-53
2022/03/23 08:56:37;;;;;;;3.53;1.90;;;;;;;;;;4985293;28;20739;-52
2022/03/23 08:59:02;;;;;;;3.17;1.70;;;;;;;;;;4984760;28;20347;-52
2022/03/23 09:01:27;;;;;;;3.70;2.10;;;;;;;;;;4984918;28;20281;-51
2022/03/23 09:03:53;;;;;;;3.47;2.13;;;;;;;;;;4984525;28;20647;-52
2022/03/23 09:06:18;;;;;;;4.07;2.35;;;;;;;;;;4984319;28;20266;-55
2022/03/23 09:08:44;;;;;;;4.03;1.98;;;;;;;;;;4984294;28;20026;-53
2022/03/23 09:11:09;;;;;;;3.38;1.95;;;;;;;;;;4984795;28;20478;-52
2022/03/23 09:13:34;;;;;;;4.03;2.20;;;;;;;;;;4984504;28;20093;-53
2022/03/23 09:15:59;;;;;;;3.50;2.23;;;;;;;;;;4983962;28;20265;-51
2022/03/23 09:18:26;;;;;;;4.53;2.20;;;;;;;;;;4983101;28;20796;-52
2022/03/23 09:20:51;;;;;;;4.43;2.35;;;;;;;;;;4984189;28;20308;-53
2022/03/23 09:23:17;;;;;;;3.28;1.85;;;;;;;;;;4984496;28;20060;-53
2022/03/23 09:25:43;;;;;;;4.03;2.30;;;;;;;;;;4984247;28;20090;-53
2022/03/23 09:28:09;;;;;;;3.70;1.88;;;;;;;;;;4984068;28;20276;-52
2022/03/23 09:30:35;;;;;;;4.05;2.25;;;;;;;;;;4977916;28;20508;-52
2022/03/23 09:33:01;;;;;;;4.40;2.22;;;;;;;;;;4976584;28;20026;-52
2022/03/23 09:35:26;;;;;;;4.80;2.45;;;;;;;;;;4983256;28;20034;-52
2022/03/23 09:37:52;;;;;;;3.72;1.95;;;;;;;;;;4984005;28;20498;-52
2022/03/23 09:40:17;;;;;;;3.75;1.95;;;;;;;;;;4983826;28;20054;-52
2022/03/23 09:42:43;;;;;;;3.33;2.17;;;;;;;;;;4984046;28;20421;-53
2022/03/23 09:45:10;;;;;;;3.58;2.03;;;;;;;;;;4983782;28;20510;-51
2022/03/23 09:47:36;;;;;;;3.90;1.80;;;;;;;;;;4981268;28;20141;-53
2022/03/23 09:50:01;;;;;;;3.60;2.00;;;;;;;;;;4979087;28;20101;-52
2022/03/23 09:52:27;;;;;;;3.80;2.30;;;;;;;;;;4984274;28;20611;-52
2022/03/23 09:54:52;;;;;;;3.85;1.90;;;;;;;;;;4983869;28;20374;-52
2022/03/23 09:57:17;;;;;;;4.32;2.13;;;;;;;;;;4982418;28;20022;-52
2022/03/23 09:59:43;;;;;;;5.70;2.50;;;;;;;;;;4984259;28;20026;-52
2022/03/23 10:02:08;;;;;;;3.17;1.80;;;;;;;;;;4984185;28;20266;-52
2022/03/23 10:04:42;;;;;;;3.55;2.00;;;;;;;;;;4984373;28;20057;-52
2022/03/23 10:07:14;;;;;;;4.07;2.13;;;;;;;;;;4972998;28;20384;-52
2022/03/23 10:09:58;;;;;;;5.03;2.40;;;;;;;;;;4994428;28;20049;-51
2022/03/23 10:12:41;;;;;;;6.05;3.10;;;;;;;;;;5003105;28;20084;-52
2022/03/23 10:15:25;;;;;;;8.85;3.47;;;;;;;;;;5001973;28;20061;-53
2022/03/23 10:18:09;;;;;;;6.10;3.00;;;;;;;;;;4986507;28;20034;-52
2022/03/23 10:20:35;;;;;;;7.63;3.30;;;;;;;;;;4982122;28;20030;-52
2022/03/23 10:23:01;;;;;;;11.10;3.40;;;;;;;;;;4983412;28;20022;-52
2022/03/23 10:25:27;;;;;;;8.95;3.53;;;;;;;;;;4983378;28;20045;-52
2022/03/23 10:27:55;;;;;;;6.93;3.35;;;;;;;;;;4967464;28;20450;-52
2022/03/23 10:30:31;;;;;;;6.22;3.03;;;;;;;;;;4983344;28;20045;-52
2022/03/23 10:32:56;;;;;;;7.07;3.20;;;;;;;;;;4983304;28;20073;-53
2022/03/23 10:35:21;;;;;;;7.40;3.93;;;;;;;;;;4983483;28;20119;-52
2022/03/23 10:37:48;;;;;;;6.18;2.70;;;;;;;;;;4982914;28;20168;-52
2022/03/23 10:40:13;;;;;;;5.68;2.67;;;;;;;;;;4983211;28;20084;-52
2022/03/23 10:42:39;;;;;;;6.07;2.90;;;;;;;;;;4982247;28;20529;-52
2022/03/23 10:45:06;;;;;;;6.47;3.42;;;;;;;;;;4983305;28;20092;-52
2022/03/23 10:47:32;;;;;;;5.15;3.00;;;;;;;;;;4981650;28;20548;-52
2022/03/23 10:50:07;;;;;;;6.07;2.78;;;;;;;;;;4979280;28;20026;-51
2022/03/23 10:52:33;;;;;;;6.43;2.92;;;;;;;;;;4982710;28;20022;-51
2022/03/23 10:54:59;;;;;;;6.03;2.60;;;;;;;;;;4982442;28;20054;-51
2022/03/23 10:57:42;;;;;;;4.75;2.83;;;;;;;;;;4979715;28;20080;-52
2022/03/23 11:00:08;;;;;;;6.30;2.80;;;;;;;;;;4982222;28;20092;-51
2022/03/23 11:02:45;;;;;;;7.22;3.22;;;;;;;;;;4982257;28;20050;-51
2022/03/23 11:05:10;;;;;;;5.07;2.50;;;;;;;;;;4981039;28;20092;-52
2022/03/23 11:07:38;;;;;;;5.95;2.80;;;;;;;;;;4982213;28;20480;-51
2022/03/23 11:15:47;;;;;;;5.50;2.80;;;;;;;;;;4982727;28;20076;-51
2022/03/23 11:18:12;;;;;;;6.20;2.97;;;;;;;;;;4982973;28;20030;-51
2022/03/23 11:20:51;;;;;;;5.20;2.95;;;;;;;;;;4982965;28;20085;-51
2022/03/23 11:23:26;;;;;;;4.30;3.08;;;;;;;;;;4981769;28;20106;-51
2022/03/23 11:25:51;;;;;;;4.82;2.45;;;;;;;;;;4982514;28;20513;-51
2022/03/23 11:28:17;;;;;;;5.53;3.05;;;;;;;;;;4978962;28;20044;-52
2022/03/23 11:30:43;;;;;;;5.28;2.90;;;;;;;;;;5002670;28;20692;-52
2022/03/23 11:33:11;;;;;;;6.13;2.65;;;;;;;;;;5002641;28;20037;-52
2022/03/23 11:35:37;;;;;;;4.32;2.60;;;;;;;;;;5002530;28;21418;-51
2022/03/23 11:38:02;;;;;;;5.40;2.88;;;;;;;;;;4984370;28;20461;-51
2022/03/23 11:40:27;;;;;;;5.43;2.80;;;;;;;;;;4981666;28;20022;-51
2022/03/23 11:42:53;;;;;;;5.95;2.85;;;;;;;;;;4981743;28;20050;-52
2022/03/23 11:45:18;;;;;;;4.63;2.45;;;;;;;;;;4981629;28;20026;-52
2022/03/23 11:47:58;;;;;;;5.50;2.50;;;;;;;;;;4981303;28;20038;-52
2022/03/23 11:50:30;;;;;;;5.97;2.95;;;;;;;;;;5001335;28;20025;-52
2022/03/23 11:53:14;;;;;;;4.28;2.80;;;;;;;;;;5000776;28;20529;-51
2022/03/23 11:55:45;;;;;;;5.90;2.83;;;;;;;;;;5002190;28;20046;-52
2022/03/23 11:58:18;;;;;;;6.65;3.00;;;;;;;;;;4983741;28;20055;-51
2022/03/23 12:00:51;;;;;;;5.65;2.95;;;;;;;;;;4986461;28;20022;-52
2022/03/23 12:03:36;;;;;;;4.40;2.88;;;;;;;;;;4986231;28;20034;-52
2022/03/23 12:06:06;;;;;;;4.68;2.42;;;;;;;;;;4980796;28;20041;-51
2022/03/23 12:08:44;;;;;;;5.32;2.90;;;;;;;;;;4977540;28;20025;-51
2022/03/23 12:11:28;;;;;;;4.25;2.45;;;;;;;;;;5005743;28;20033;-51
2022/03/23 12:14:00;;;;;;;5.82;2.50;;;;;;;;;;5005297;28;20034;-51
2022/03/23 12:16:44;;;;;;;4.50;2.70;;;;;;;;;;5000914;28;20102;-51
2022/03/23 12:19:10;;;;;;;5.28;2.53;;;;;;;;;;4986068;28;20058;-51
2022/03/23 12:21:56;;;;;;;4.70;2.60;;;;;;;;;;4985991;28;20536;-51
2022/03/23 12:24:40;;;;;;;6.07;3.33;;;;;;;;;;4985541;28;20114;-51
2022/03/23 12:27:12;;;;;;;4.63;2.63;;;;;;;;;;4976231;28;20027;-52
2022/03/23 12:29:38;;;;;;;5.07;2.60;;;;;;;;;;4997266;28;20407;-51
2022/03/23 12:32:05;;;;;;;4.05;2.28;;;;;;;;;;5004799;28;20038;-51
2022/03/23 12:34:31;;;;;;;4.10;2.17;;;;;;;;;;5004956;28;20120;-50
2022/03/23 12:37:07;;;;;;;5.25;2.72;;;;;;;;;;4974916;28;20474;-50
2022/03/23 12:39:33;;;;;;;4.80;2.63;;;;;;;;;;4985604;28;20062;-51
2022/03/23 12:41:59;;;;;;;4.80;2.60;;;;;;;;;;4984908;28;20112;-51
2022/03/23 12:44:29;;;;;;;3.88;2.13;;;;;;;;;;4985543;28;20034;-51
2022/03/23 12:46:54;;;;;;;4.93;2.72;;;;;;;;;;4977207;28;20681;-52
2022/03/23 12:57:49;;;;;;;6.10;2.92;;;;;;;;;;4987418;28;20037;-52
2022/03/23 13:00:26;;;;;;;4.45;2.28;;;;;;;;;;4986334;28;20097;-52
2022/03/23 13:03:03;;;;;;;5.25;2.47;;;;;;;;;;4986513;28;20022;-52
2022/03/23 13:05:29;;;;;;;5.45;2.80;;;;;;;;;;4985970;28;20029;-52
2022/03/23 13:07:54;;;;;;;4.40;2.58;;;;;;;;;;4970076;28;20026;-52
2022/03/23 13:10:24;;;;;;;5.20;2.70;;;;;;;;;;5001277;28;20027;-52
2022/03/23 13:12:50;;;;;;;;;;;;;;;;;;4987231;28;20038;-52
2022/03/23 13:15:18;;;;;;;4.47;2.53;;;;;;;;;;4990695;28;19996;-53
2022/03/23 13:17:44;;;;;;;4.88;2.92;;;;;;;;;;4988545;28;20027;-53
2022/03/23 13:20:10;;;;;;;6.30;2.83;;;;;;;;;;4989344;28;20100;-51
2022/03/23 13:22:38;;;;;;;4.40;2.80;;;;;;;;;;4990911;28;20041;-52
2022/03/23 13:25:04;;;;;;;5.72;2.92;;;;;;;;;;4987963;28;20041;-52
2022/03/23 13:27:29;;;;;;;4.90;2.70;;;;;;;;;;4986259;28;20525;-52
2022/03/23 13:30:00;;;;;;;5.23;2.53;;;;;;;;;;4986078;28;20026;-51
2022/03/23 13:32:32;;;;;;;5.22;2.50;;;;;;;;;;4984376;28;20281;-51
2022/03/23 13:34:58;;;;;;;4.30;2.42;;;;;;;;;;4984043;28;20041;-52
2022/03/23 13:37:23;;;;;;;5.13;2.80;;;;;;;;;;4984546;28;20023;-53
2022/03/23 13:39:48;;;;;;;4.20;2.17;;;;;;;;;;4984119;28;20518;-51
2022/03/23 13:44:59;;;;;;;4.60;3.00;;;;;;;;;;4982591;28;20069;-50
2022/03/23 13:47:40;;;;;;;4.82;2.60;;;;;;;;;;4982212;28;20030;-50
2022/03/23 13:50:07;;;;;;;4.65;2.75;;;;;;;;;;4999815;28;20859;-55
2022/03/23 13:52:32;;;;;;;4.75;2.85;;;;;;;;;;5002764;28;20065;-50
2022/03/23 13:54:58;;;;;;;5.20;3.10;;;;;;;;;;5002545;28;20108;-50
2022/03/23 13:57:23;;;;;;;4.25;2.53;;;;;;;;;;4991304;28;20277;-49
2022/03/23 13:59:48;;;;;;;5.00;3.10;;;;;;;;;;4983615;28;20026;-50
2022/03/23 14:02:16;;;;;;;5.43;3.08;;;;;;;;;;4982519;28;20050;-59
2022/03/23 14:04:42;;;;;;;6.00;2.92;;;;;;;;;;4983258;28;20030;-50
2022/03/23 14:07:07;;;;;;;7.43;3.25;;;;;;;;;;4973789;28;20031;-51
2022/03/23 14:09:32;;;;;;;7.43;3.45;;;;;;;;;;4977920;28;20033;-50
2022/03/23 14:12:05;;;;;;;4.37;2.60;;;;;;;;;;4982410;28;20645;-50
2022/03/23 14:14:31;;;;;;;5.40;2.45;;;;;;;;;;4983444;28;20038;-51
2022/03/23 14:17:00;;;;;;;4.80;2.65;;;;;;;;;;4983238;28;20010;-50
2022/03/23 14:19:27;;;;;;;4.50;2.53;;;;;;;;;;4983940;28;20038;-50
2022/03/23 14:21:53;;;;;;;5.38;2.60;;;;;;;;;;4983309;28;20061;-50
2022/03/23 14:24:19;;;;;;;5.43;2.60;;;;;;;;;;4983089;28;20026;-50
2022/03/23 14:26:45;;;;;;;4.97;2.95;;;;;;;;;;4982075;28;20026;-51
2022/03/23 14:29:20;;;;;;;5.93;2.60;;;;;;;;;;4983730;28;20101;-50
2022/03/23 14:31:45;;;;;;;5.40;3.00;;;;;;;;;;4983140;28;20052;-50
2022/03/23 14:34:10;;;;;;;5.43;2.77;;;;;;;;;;4983095;28;20489;-52
2022/03/23 14:36:37;;;;;;;4.83;2.73;;;;;;;;;;4983430;28;20352;-51
2022/03/23 14:39:03;;;;;;;5.10;2.83;;;;;;;;;;4983361;28;20093;-50
2022/03/23 14:41:29;;;;;;;4.78;2.90;;;;;;;;;;4981696;28;20114;-50
2022/03/23 14:43:54;;;;;;;5.65;2.72;;;;;;;;;;4983203;28;20033;-50
2022/03/23 14:46:29;;;;;;;6.18;3.30;;;;;;;;;;4979923;28;20015;-50
2022/03/23 14:49:00;;;;;;;6.97;3.55;;;;;;;;;;4979780;28;20065;-51
2022/03/23 14:51:25;;;;;;;5.78;2.92;;;;;;;;;;5003168;28;20018;-51
2022/03/23 14:53:51;;;;;;;4.97;3.00;;;;;;;;;;5002692;28;20073;-51
2022/03/23 14:56:17;;;;;;;6.57;3.30;;;;;;;;;;4999581;28;20022;-50
2022/03/23 14:58:42;;;;;;;6.75;3.65;;;;;;;;;;4983270;28;20129;-50
2022/03/23 15:01:08;;;;;;;7.32;3.30;;;;;;;;;;4982861;28;20057;-50
2022/03/23 15:03:34;;;;;;;6.78;3.42;;;;;;;;;;4983188;28;20647;-50
2022/03/23 15:14:11;;;;;;;5.82;3.47;;;;;;;;;;4982657;28;20045;-50
2022/03/23 15:16:38;;;;;;;9.10;4.00;;;;;;;;;;4983058;28;20022;-50